sensor_id;sensor_type;location;lat;lon;timestamp;temperature;humidity
42715;DHT22;28351;51.480;5.706;2023-04-01T00:00:55;9.80;99.90
42715;DHT22;28351;51.480;5.706;2023-04-01T00:03:21;9.80;99.90
42715;DHT22;28351;51.480;5.706;2023-04-01T00:05:47;9.80;99.90
42715;DHT22;28351;51.480;5.706;2023-04-01T00:08:13;9.80;99.90
42715;DHT22;28351;51.480;5.706;2023-04-01T00:10:39;9.80;99.90
42715;DHT22;28351;51.480;5.706;2023-04-01T00:13:05;9.80;99.90
42715;DHT22;28351;51.480;5.706;2023-04-01T00:15:31;9.80;99.90
42715;DHT22;28351;51.480;5.706;2023-04-01T00:17:57;9.80;99.90
42715;DHT22;28351;51.480;5.706;2023-04-01T00:20:22;9.80;99.90
42715;DHT22;28351;51.480;5.706;2023-04-01T00:22:48;9.70;99.90
42715;DHT22;28351;51.480;5.706;2023-04-01T00:25:14;9.70;99.90
42715;DHT22;28351;51.480;5.706;2023-04-01T00:27:40;9.70;99.90
42715;DHT22;28351;51.480;5.706;2023-04-01T00:30:06;9.70;99.90
42715;DHT22;28351;51.480;5.706;2023-04-01T00:32:33;9.70;99.90
42715;DHT22;28351;51.480;5.706;2023-04-01T00:34:58;9.70;99.90
42715;DHT22;28351;51.480;5.706;2023-04-01T00:37:25;9.70;99.90
42715;DHT22;28351;51.480;5.706;2023-04-01T00:39:51;9.70;99.90
42715;DHT22;28351;51.480;5.706;2023-04-01T00:42:17;9.70;99.90
42715;DHT22;28351;51.480;5.706;2023-04-01T00:44:46;9.70;99.90
42715;DHT22;28351;51.480;5.706;2023-04-01T00:47:12;9.70;99.90
42715;DHT22;28351;51.480;5.706;2023-04-01T00:49:44;9.70;99.90
42715;DHT22;28351;51.480;5.706;2023-04-01T00:52:13;9.80;99.90
42715;DHT22;28351;51.480;5.706;2023-04-01T00:54:40;9.70;99.90
42715;DHT22;28351;51.480;5.706;2023-04-01T00:57:18;9.70;99.90
42715;DHT22;28351;51.480;5.706;2023-04-01T00:59:47;9.70;99.90
42715;DHT22;28351;51.480;5.706;2023-04-01T01:02:15;9.70;99.90
42715;DHT22;28351;51.480;5.706;2023-04-01T01:04:41;9.70;99.90
42715;DHT22;28351;51.480;5.706;2023-04-01T01:15:57;9.70;99.90
42715;DHT22;28351;51.480;5.706;2023-04-01T01:21:17;9.70;99.90
42715;DHT22;28351;51.480;5.706;2023-04-01T01:34:36;9.70;99.90
42715;DHT22;28351;51.480;5.706;2023-04-01T01:37:16;9.70;99.90
42715;DHT22;28351;51.480;5.706;2023-04-01T01:39:45;9.70;99.90
42715;DHT22;28351;51.480;5.706;2023-04-01T01:42:15;9.70;99.90
42715;DHT22;28351;51.480;5.706;2023-04-01T01:44:44;9.70;99.90
42715;DHT22;28351;51.480;5.706;2023-04-01T01:47:10;9.70;99.90
42715;DHT22;28351;51.480;5.706;2023-04-01T01:49:39;9.70;99.90
42715;DHT22;28351;51.480;5.706;2023-04-01T01:52:05;9.70;99.90
42715;DHT22;28351;51.480;5.706;2023-04-01T01:54:31;9.70;99.90
42715;DHT22;28351;51.480;5.706;2023-04-01T01:57:08;9.70;99.90
42715;DHT22;28351;51.480;5.706;2023-04-01T01:59:37;9.70;99.90
42715;DHT22;28351;51.480;5.706;2023-04-01T02:02:04;9.70;99.90
42715;DHT22;28351;51.480;5.706;2023-04-01T02:04:36;9.60;99.90
42715;DHT22;28351;51.480;5.706;2023-04-01T02:07:39;9.70;99.90
42715;DHT22;28351;51.480;5.706;2023-04-01T02:09:57;9.70;99.90
42715;DHT22;28351;51.480;5.706;2023-04-01T02:12:24;9.70;99.90
42715;DHT22;28351;51.480;5.706;2023-04-01T02:15:03;9.70;99.90
42715;DHT22;28351;51.480;5.706;2023-04-01T02:17:32;9.70;99.90
42715;DHT22;28351;51.480;5.706;2023-04-01T02:20:06;9.70;99.90
42715;DHT22;28351;51.480;5.706;2023-04-01T02:22:42;9.70;99.90
42715;DHT22;28351;51.480;5.706;2023-04-01T02:25:13;9.70;99.90
42715;DHT22;28351;51.480;5.706;2023-04-01T02:27:42;9.70;99.90
42715;DHT22;28351;51.480;5.706;2023-04-01T02:30:12;9.60;99.90
42715;DHT22;28351;51.480;5.706;2023-04-01T02:32:39;9.70;99.90
42715;DHT22;28351;51.480;5.706;2023-04-01T02:35:07;9.70;99.90
42715;DHT22;28351;51.480;5.706;2023-04-01T02:37:34;9.70;99.90
42715;DHT22;28351;51.480;5.706;2023-04-01T02:40:04;9.70;99.90
42715;DHT22;28351;51.480;5.706;2023-04-01T02:42:32;9.70;99.90
42715;DHT22;28351;51.480;5.706;2023-04-01T02:44:57;9.70;99.90
42715;DHT22;28351;51.480;5.706;2023-04-01T02:47:23;9.60;99.90
42715;DHT22;28351;51.480;5.706;2023-04-01T02:49:48;9.60;99.90
42715;DHT22;28351;51.480;5.706;2023-04-01T02:52:14;9.70;99.90
42715;DHT22;28351;51.480;5.706;2023-04-01T02:54:40;9.70;99.90
42715;DHT22;28351;51.480;5.706;2023-04-01T02:57:06;9.60;99.90
42715;DHT22;28351;51.480;5.706;2023-04-01T02:59:32;9.60;99.90
42715;DHT22;28351;51.480;5.706;2023-04-01T03:01:57;9.60;99.90
42715;DHT22;28351;51.480;5.706;2023-04-01T03:04:23;9.60;99.90
42715;DHT22;28351;51.480;5.706;2023-04-01T03:06:48;9.60;99.90
42715;DHT22;28351;51.480;5.706;2023-04-01T03:09:14;9.60;99.90
42715;DHT22;28351;51.480;5.706;2023-04-01T03:11:40;9.60;99.90
42715;DHT22;28351;51.480;5.706;2023-04-01T03:14:06;9.50;99.90
42715;DHT22;28351;51.480;5.706;2023-04-01T03:16:32;9.60;99.90
42715;DHT22;28351;51.480;5.706;2023-04-01T03:18:58;9.50;99.90
42715;DHT22;28351;51.480;5.706;2023-04-01T03:21:25;9.50;99.90
42715;DHT22;28351;51.480;5.706;2023-04-01T03:23:51;9.50;99.90
42715;DHT22;28351;51.480;5.706;2023-04-01T03:26:17;9.60;99.90
42715;DHT22;28351;51.480;5.706;2023-04-01T03:28:43;9.50;99.90
42715;DHT22;28351;51.480;5.706;2023-04-01T03:31:09;9.50;99.90
42715;DHT22;28351;51.480;5.706;2023-04-01T03:33:38;9.60;99.90
42715;DHT22;28351;51.480;5.706;2023-04-01T03:36:04;9.50;99.90
42715;DHT22;28351;51.480;5.706;2023-04-01T03:38:34;9.60;99.90
42715;DHT22;28351;51.480;5.706;2023-04-01T03:41:00;9.60;99.90
42715;DHT22;28351;51.480;5.706;2023-04-01T03:43:26;9.60;99.90
42715;DHT22;28351;51.480;5.706;2023-04-01T03:45:52;9.60;99.90
42715;DHT22;28351;51.480;5.706;2023-04-01T03:48:19;9.60;99.90
42715;DHT22;28351;51.480;5.706;2023-04-01T03:50:48;9.60;99.90
42715;DHT22;28351;51.480;5.706;2023-04-01T03:53:14;9.50;99.90
42715;DHT22;28351;51.480;5.706;2023-04-01T03:55:40;9.60;99.90
42715;DHT22;28351;51.480;5.706;2023-04-01T03:58:07;9.50;99.90
42715;DHT22;28351;51.480;5.706;2023-04-01T04:00:33;9.50;99.90
42715;DHT22;28351;51.480;5.706;2023-04-01T04:02:59;9.50;99.90
42715;DHT22;28351;51.480;5.706;2023-04-01T04:05:25;9.50;99.90
42715;DHT22;28351;51.480;5.706;2023-04-01T04:07:51;9.50;99.90
42715;DHT22;28351;51.480;5.706;2023-04-01T04:10:17;9.50;99.90
42715;DHT22;28351;51.480;5.706;2023-04-01T04:12:43;9.50;99.90
42715;DHT22;28351;51.480;5.706;2023-04-01T04:15:09;9.50;99.90
42715;DHT22;28351;51.480;5.706;2023-04-01T04:17:35;9.50;99.90
42715;DHT22;28351;51.480;5.706;2023-04-01T04:20:01;9.50;99.90
42715;DHT22;28351;51.480;5.706;2023-04-01T04:22:26;9.50;99.90
42715;DHT22;28351;51.480;5.706;2023-04-01T04:24:52;9.50;99.90
42715;DHT22;28351;51.480;5.706;2023-04-01T04:27:18;9.50;99.90
42715;DHT22;28351;51.480;5.706;2023-04-01T04:29:46;9.50;99.90
42715;DHT22;28351;51.480;5.706;2023-04-01T04:32:12;9.50;99.90
42715;DHT22;28351;51.480;5.706;2023-04-01T04:34:37;9.50;99.90
42715;DHT22;28351;51.480;5.706;2023-04-01T04:37:03;9.50;99.90
42715;DHT22;28351;51.480;5.706;2023-04-01T04:39:29;9.40;99.90
42715;DHT22;28351;51.480;5.706;2023-04-01T04:41:55;9.50;99.90
42715;DHT22;28351;51.480;5.706;2023-04-01T04:44:21;9.40;99.90
42715;DHT22;28351;51.480;5.706;2023-04-01T04:46:47;9.40;99.90
42715;DHT22;28351;51.480;5.706;2023-04-01T04:49:12;9.50;99.90
42715;DHT22;28351;51.480;5.706;2023-04-01T04:51:38;9.40;99.90
42715;DHT22;28351;51.480;5.706;2023-04-01T04:54:04;9.40;99.90
42715;DHT22;28351;51.480;5.706;2023-04-01T04:56:33;9.40;99.90
42715;DHT22;28351;51.480;5.706;2023-04-01T04:58:58;9.40;99.90
42715;DHT22;28351;51.480;5.706;2023-04-01T05:01:24;9.30;99.90
42715;DHT22;28351;51.480;5.706;2023-04-01T05:03:50;9.30;99.90
42715;DHT22;28351;51.480;5.706;2023-04-01T05:06:17;9.30;99.90
42715;DHT22;28351;51.480;5.706;2023-04-01T05:08:44;9.30;99.90
42715;DHT22;28351;51.480;5.706;2023-04-01T05:11:13;9.30;99.90
42715;DHT22;28351;51.480;5.706;2023-04-01T05:13:39;9.30;99.90
42715;DHT22;28351;51.480;5.706;2023-04-01T05:16:09;9.30;99.90
42715;DHT22;28351;51.480;5.706;2023-04-01T05:18:35;9.30;99.90
42715;DHT22;28351;51.480;5.706;2023-04-01T05:21:00;9.30;99.90
42715;DHT22;28351;51.480;5.706;2023-04-01T05:23:26;9.20;99.90
42715;DHT22;28351;51.480;5.706;2023-04-01T05:25:52;9.30;99.90
42715;DHT22;28351;51.480;5.706;2023-04-01T05:28:19;9.30;99.90
42715;DHT22;28351;51.480;5.706;2023-04-01T05:30:45;9.30;99.90
42715;DHT22;28351;51.480;5.706;2023-04-01T05:33:12;9.30;99.90
42715;DHT22;28351;51.480;5.706;2023-04-01T05:35:39;9.30;99.90
42715;DHT22;28351;51.480;5.706;2023-04-01T05:38:05;9.20;99.90
42715;DHT22;28351;51.480;5.706;2023-04-01T05:40:31;9.20;99.90
42715;DHT22;28351;51.480;5.706;2023-04-01T05:42:58;9.20;99.90
42715;DHT22;28351;51.480;5.706;2023-04-01T05:45:23;9.20;99.90
42715;DHT22;28351;51.480;5.706;2023-04-01T05:47:49;9.30;99.90
42715;DHT22;28351;51.480;5.706;2023-04-01T05:50:15;9.30;99.90
42715;DHT22;28351;51.480;5.706;2023-04-01T05:52:43;9.30;99.90
42715;DHT22;28351;51.480;5.706;2023-04-01T05:55:10;9.30;99.90
42715;DHT22;28351;51.480;5.706;2023-04-01T05:57:36;9.30;99.90
42715;DHT22;28351;51.480;5.706;2023-04-01T06:00:02;9.30;99.90
42715;DHT22;28351;51.480;5.706;2023-04-01T06:02:28;9.30;99.90
42715;DHT22;28351;51.480;5.706;2023-04-01T06:05:09;9.40;99.90
42715;DHT22;28351;51.480;5.706;2023-04-01T06:07:39;9.30;99.90
42715;DHT22;28351;51.480;5.706;2023-04-01T06:10:16;9.30;99.90
42715;DHT22;28351;51.480;5.706;2023-04-01T06:25:50;9.30;99.90
42715;DHT22;28351;51.480;5.706;2023-04-01T06:37:08;9.30;99.90
42715;DHT22;28351;51.480;5.706;2023-04-01T06:40:10;9.40;99.90
42715;DHT22;28351;51.480;5.706;2023-04-01T06:48:21;9.40;99.90
42715;DHT22;28351;51.480;5.706;2023-04-01T06:53:54;9.50;99.90
42715;DHT22;28351;51.480;5.706;2023-04-01T06:56:25;9.40;99.90
42715;DHT22;28351;51.480;5.706;2023-04-01T06:58:59;9.50;99.90
42715;DHT22;28351;51.480;5.706;2023-04-01T07:01:44;9.50;99.90
42715;DHT22;28351;51.480;5.706;2023-04-01T07:04:33;9.50;99.90
42715;DHT22;28351;51.480;5.706;2023-04-01T07:07:04;9.50;99.90
42715;DHT22;28351;51.480;5.706;2023-04-01T07:09:40;9.50;99.90
42715;DHT22;28351;51.480;5.706;2023-04-01T07:12:12;9.50;99.90
42715;DHT22;28351;51.480;5.706;2023-04-01T07:14:41;9.50;99.90
42715;DHT22;28351;51.480;5.706;2023-04-01T07:17:27;9.60;99.90
42715;DHT22;28351;51.480;5.706;2023-04-01T07:20:27;9.60;99.90
42715;DHT22;28351;51.480;5.706;2023-04-01T07:22:58;9.70;99.90
42715;DHT22;28351;51.480;5.706;2023-04-01T07:25:37;9.70;99.90
42715;DHT22;28351;51.480;5.706;2023-04-01T07:28:15;9.70;99.90
42715;DHT22;28351;51.480;5.706;2023-04-01T07:31:08;9.70;99.90
42715;DHT22;28351;51.480;5.706;2023-04-01T07:39:26;9.80;99.90
42715;DHT22;28351;51.480;5.706;2023-04-01T07:50:31;10.00;99.90
42715;DHT22;28351;51.480;5.706;2023-04-01T08:04:20;9.90;99.90
42715;DHT22;28351;51.480;5.706;2023-04-01T08:07:23;9.90;99.90
42715;DHT22;28351;51.480;5.706;2023-04-01T08:12:56;10.00;99.90
42715;DHT22;28351;51.480;5.706;2023-04-01T08:15:28;10.10;99.90
42715;DHT22;28351;51.480;5.706;2023-04-01T08:18:00;10.10;99.90
42715;DHT22;28351;51.480;5.706;2023-04-01T08:23:21;10.30;99.90
42715;DHT22;28351;51.480;5.706;2023-04-01T08:28:44;10.40;99.90
42715;DHT22;28351;51.480;5.706;2023-04-01T08:31:25;10.50;99.90
42715;DHT22;28351;51.480;5.706;2023-04-01T08:33:55;10.50;99.90
42715;DHT22;28351;51.480;5.706;2023-04-01T08:36:34;10.60;99.90
42715;DHT22;28351;51.480;5.706;2023-04-01T08:39:52;10.70;99.90
42715;DHT22;28351;51.480;5.706;2023-04-01T08:52:29;10.40;99.90
42715;DHT22;28351;51.480;5.706;2023-04-01T09:00:38;10.50;99.90
42715;DHT22;28351;51.480;5.706;2023-04-01T09:08:50;10.40;99.90
42715;DHT22;28351;51.480;5.706;2023-04-01T09:17:51;10.50;99.90
42715;DHT22;28351;51.480;5.706;2023-04-01T09:23:42;10.80;99.90
42715;DHT22;28351;51.480;5.706;2023-04-01T09:31:43;11.20;99.90
42715;DHT22;28351;51.480;5.706;2023-04-01T09:34:37;11.20;99.90
42715;DHT22;28351;51.480;5.706;2023-04-01T09:37:18;11.20;99.90
42715;DHT22;28351;51.480;5.706;2023-04-01T09:43:14;11.50;99.90
42715;DHT22;28351;51.480;5.706;2023-04-01T09:54:19;11.80;99.90
42715;DHT22;28351;51.480;5.706;2023-04-01T10:00:35;11.60;99.90
42715;DHT22;28351;51.480;5.706;2023-04-01T10:03:37;11.60;99.90
42715;DHT22;28351;51.480;5.706;2023-04-01T10:18:15;11.00;99.90
42715;DHT22;28351;51.480;5.706;2023-04-01T10:26:47;10.80;99.90
42715;DHT22;28351;51.480;5.706;2023-04-01T10:35:03;10.80;99.90
42715;DHT22;28351;51.480;5.706;2023-04-01T10:42:01;10.80;99.90
42715;DHT22;28351;51.480;5.706;2023-04-01T10:52:34;10.70;99.90
42715;DHT22;28351;51.480;5.706;2023-04-01T11:09:38;10.90;99.90
42715;DHT22;28351;51.480;5.706;2023-04-01T11:21:14;10.70;99.90
42715;DHT22;28351;51.480;5.706;2023-04-01T11:34:39;10.70;99.90
42715;DHT22;28351;51.480;5.706;2023-04-01T11:43:31;10.90;99.90
42715;DHT22;28351;51.480;5.706;2023-04-01T11:46:11;10.80;99.90
42715;DHT22;28351;51.480;5.706;2023-04-01T11:48:54;10.80;99.90
42715;DHT22;28351;51.480;5.706;2023-04-01T11:51:37;10.90;99.90
42715;DHT22;28351;51.480;5.706;2023-04-01T11:55:08;10.80;99.90
42715;DHT22;28351;51.480;5.706;2023-04-01T12:00:10;10.80;99.90
42715;DHT22;28351;51.480;5.706;2023-04-01T12:13:50;11.00;99.90
42715;DHT22;28351;51.480;5.706;2023-04-01T12:16:41;11.10;99.90
42715;DHT22;28351;51.480;5.706;2023-04-01T12:21:59;11.10;99.90
42715;DHT22;28351;51.480;5.706;2023-04-01T12:33:01;11.40;99.90
42715;DHT22;28351;51.480;5.706;2023-04-01T12:38:35;11.50;99.90
42715;DHT22;28351;51.480;5.706;2023-04-01T12:41:29;11.30;99.90
42715;DHT22;28351;51.480;5.706;2023-04-01T12:53:06;11.10;99.90
42715;DHT22;28351;51.480;5.706;2023-04-01T12:55:49;11.10;99.90
42715;DHT22;28351;51.480;5.706;2023-04-01T13:08:05;10.80;99.90
42715;DHT22;28351;51.480;5.706;2023-04-01T13:10:43;10.90;99.90
42715;DHT22;28351;51.480;5.706;2023-04-01T13:13:28;10.90;99.90
42715;DHT22;28351;51.480;5.706;2023-04-01T13:16:14;10.80;99.90
42715;DHT22;28351;51.480;5.706;2023-04-01T13:19:09;10.80;99.90
42715;DHT22;28351;51.480;5.706;2023-04-01T13:32:50;10.80;99.90
42715;DHT22;28351;51.480;5.706;2023-04-01T13:38:31;10.80;99.90
42715;DHT22;28351;51.480;5.706;2023-04-01T13:43:39;10.80;99.90
42715;DHT22;28351;51.480;5.706;2023-04-01T13:57:47;10.70;99.90
42715;DHT22;28351;51.480;5.706;2023-04-01T14:09:18;10.70;99.90
42715;DHT22;28351;51.480;5.706;2023-04-01T14:12:13;10.60;99.90
42715;DHT22;28351;51.480;5.706;2023-04-01T14:27:09;10.60;99.90
42715;DHT22;28351;51.480;5.706;2023-04-01T14:29:59;10.70;99.90
42715;DHT22;28351;51.480;5.706;2023-04-01T14:48:39;10.80;99.90
42715;DHT22;28351;51.480;5.706;2023-04-01T14:51:28;10.80;99.90
42715;DHT22;28351;51.480;5.706;2023-04-01T14:56:44;10.80;99.90
42715;DHT22;28351;51.480;5.706;2023-04-01T15:02:14;10.70;99.90
42715;DHT22;28351;51.480;5.706;2023-04-01T15:04:54;10.60;99.90
42715;DHT22;28351;51.480;5.706;2023-04-01T15:13:31;10.50;99.90
42715;DHT22;28351;51.480;5.706;2023-04-01T15:27:53;10.50;99.90
42715;DHT22;28351;51.480;5.706;2023-04-01T15:30:48;10.50;99.90
42715;DHT22;28351;51.480;5.706;2023-04-01T15:33:47;10.50;99.90
42715;DHT22;28351;51.480;5.706;2023-04-01T15:44:46;10.50;99.90
42715;DHT22;28351;51.480;5.706;2023-04-01T16:07:30;10.40;99.90
42715;DHT22;28351;51.480;5.706;2023-04-01T16:10:29;10.50;99.90
42715;DHT22;28351;51.480;5.706;2023-04-01T16:15:39;10.50;99.90
42715;DHT22;28351;51.480;5.706;2023-04-01T16:21:36;10.50;99.90
42715;DHT22;28351;51.480;5.706;2023-04-01T16:27:00;10.50;99.90
42715;DHT22;28351;51.480;5.706;2023-04-01T16:32:51;10.50;99.90
42715;DHT22;28351;51.480;5.706;2023-04-01T16:38:23;10.40;99.90
42715;DHT22;28351;51.480;5.706;2023-04-01T16:41:20;10.40;99.90
42715;DHT22;28351;51.480;5.706;2023-04-01T16:44:20;10.40;99.90
42715;DHT22;28351;51.480;5.706;2023-04-01T16:49:37;10.30;99.90
42715;DHT22;28351;51.480;5.706;2023-04-01T16:54:53;10.40;99.90
42715;DHT22;28351;51.480;5.706;2023-04-01T16:57:35;10.30;99.90
42715;DHT22;28351;51.480;5.706;2023-04-01T17:00:14;10.30;99.90
42715;DHT22;28351;51.480;5.706;2023-04-01T17:02:49;10.30;99.90
42715;DHT22;28351;51.480;5.706;2023-04-01T17:05:17;10.30;99.90
42715;DHT22;28351;51.480;5.706;2023-04-01T17:13:41;10.20;99.90
42715;DHT22;28351;51.480;5.706;2023-04-01T17:19:14;10.10;99.90
42715;DHT22;28351;51.480;5.706;2023-04-01T17:22:07;10.10;99.90
42715;DHT22;28351;51.480;5.706;2023-04-01T17:33:12;10.20;99.90
42715;DHT22;28351;51.480;5.706;2023-04-01T17:41:41;10.20;99.90
42715;DHT22;28351;51.480;5.706;2023-04-01T17:44:18;10.20;99.90
42715;DHT22;28351;51.480;5.706;2023-04-01T17:49:51;10.20;99.90
42715;DHT22;28351;51.480;5.706;2023-04-01T17:52:44;10.20;99.90
42715;DHT22;28351;51.480;5.706;2023-04-01T18:00:59;10.30;99.90
42715;DHT22;28351;51.480;5.706;2023-04-01T18:06:00;10.20;99.90
42715;DHT22;28351;51.480;5.706;2023-04-01T18:20:07;10.20;99.90
42715;DHT22;28351;51.480;5.706;2023-04-01T18:22:41;10.20;99.90
42715;DHT22;28351;51.480;5.706;2023-04-01T18:27:44;10.30;99.90
42715;DHT22;28351;51.480;5.706;2023-04-01T18:30:18;10.30;99.90
42715;DHT22;28351;51.480;5.706;2023-04-01T18:32:57;10.30;99.90
42715;DHT22;28351;51.480;5.706;2023-04-01T18:38:18;10.30;99.90
42715;DHT22;28351;51.480;5.706;2023-04-01T18:41:14;10.30;99.90
42715;DHT22;28351;51.480;5.706;2023-04-01T18:43:56;10.20;99.90
42715;DHT22;28351;51.480;5.706;2023-04-01T18:46:52;10.10;99.90
42715;DHT22;28351;51.480;5.706;2023-04-01T18:55:18;9.90;99.90
42715;DHT22;28351;51.480;5.706;2023-04-01T18:57:45;9.90;99.90
42715;DHT22;28351;51.480;5.706;2023-04-01T19:00:22;9.90;99.90
42715;DHT22;28351;51.480;5.706;2023-04-01T19:03:10;9.90;99.90
42715;DHT22;28351;51.480;5.706;2023-04-01T19:05:39;9.90;99.90
42715;DHT22;28351;51.480;5.706;2023-04-01T19:08:28;10.00;99.90
42715;DHT22;28351;51.480;5.706;2023-04-01T19:11:07;9.90;99.90
42715;DHT22;28351;51.480;5.706;2023-04-01T19:14:01;9.90;99.90
42715;DHT22;28351;51.480;5.706;2023-04-01T19:22:04;9.70;99.90
42715;DHT22;28351;51.480;5.706;2023-04-01T19:25:40;9.70;99.90
42715;DHT22;28351;51.480;5.706;2023-04-01T19:28:01;9.70;99.90
42715;DHT22;28351;51.480;5.706;2023-04-01T19:30:53;9.70;99.90
42715;DHT22;28351;51.480;5.706;2023-04-01T19:42:26;9.60;99.90
42715;DHT22;28351;51.480;5.706;2023-04-01T19:45:18;9.60;99.90
42715;DHT22;28351;51.480;5.706;2023-04-01T19:56:35;9.50;99.90
42715;DHT22;28351;51.480;5.706;2023-04-01T20:01:22;9.40;99.90
42715;DHT22;28351;51.480;5.706;2023-04-01T20:03:51;9.40;99.90
42715;DHT22;28351;51.480;5.706;2023-04-01T20:06:38;9.40;99.90
42715;DHT22;28351;51.480;5.706;2023-04-01T20:17:53;9.40;99.90
42715;DHT22;28351;51.480;5.706;2023-04-01T20:20:28;9.30;99.90
42715;DHT22;28351;51.480;5.706;2023-04-01T20:33:49;9.10;99.90
42715;DHT22;28351;51.480;5.706;2023-04-01T20:36:34;9.10;99.90
42715;DHT22;28351;51.480;5.706;2023-04-01T20:45:38;8.90;99.90
42715;DHT22;28351;51.480;5.706;2023-04-01T20:51:08;8.90;99.90
42715;DHT22;28351;51.480;5.706;2023-04-01T20:53:43;8.90;99.90
42715;DHT22;28351;51.480;5.706;2023-04-01T20:59:35;8.90;99.90
42715;DHT22;28351;51.480;5.706;2023-04-01T21:10:40;8.80;99.90
42715;DHT22;28351;51.480;5.706;2023-04-01T21:16:19;8.80;99.90
42715;DHT22;28351;51.480;5.706;2023-04-01T21:33:02;8.60;99.90
42715;DHT22;28351;51.480;5.706;2023-04-01T21:35:44;8.70;99.90
42715;DHT22;28351;51.480;5.706;2023-04-01T21:41:39;8.60;99.90
42715;DHT22;28351;51.480;5.706;2023-04-01T21:52:57;8.60;99.90
42715;DHT22;28351;51.480;5.706;2023-04-01T22:00:25;8.50;99.90
42715;DHT22;28351;51.480;5.706;2023-04-01T22:06:06;8.40;99.90
42715;DHT22;28351;51.480;5.706;2023-04-01T22:08:53;8.40;99.90
42715;DHT22;28351;51.480;5.706;2023-04-01T22:11:38;8.40;99.90
42715;DHT22;28351;51.480;5.706;2023-04-01T22:16:57;8.30;99.90
42715;DHT22;28351;51.480;5.706;2023-04-01T22:25:47;8.20;99.90
42715;DHT22;28351;51.480;5.706;2023-04-01T22:28:38;8.20;99.90
42715;DHT22;28351;51.480;5.706;2023-04-01T22:31:10;8.10;99.90
42715;DHT22;28351;51.480;5.706;2023-04-01T22:38:55;8.10;99.90
42715;DHT22;28351;51.480;5.706;2023-04-01T22:44:32;8.10;99.90
42715;DHT22;28351;51.480;5.706;2023-04-01T22:47:04;8.00;99.90
42715;DHT22;28351;51.480;5.706;2023-04-01T22:49:42;8.00;99.90
42715;DHT22;28351;51.480;5.706;2023-04-01T22:52:38;8.00;99.90
42715;DHT22;28351;51.480;5.706;2023-04-01T22:55:13;7.90;99.90
42715;DHT22;28351;51.480;5.706;2023-04-01T22:58:05;7.90;99.90
42715;DHT22;28351;51.480;5.706;2023-04-01T23:00:40;7.90;99.90
42715;DHT22;28351;51.480;5.706;2023-04-01T23:03:13;7.90;99.90
42715;DHT22;28351;51.480;5.706;2023-04-01T23:05:46;7.90;99.90
42715;DHT22;28351;51.480;5.706;2023-04-01T23:11:18;7.70;99.90
42715;DHT22;28351;51.480;5.706;2023-04-01T23:13:49;7.70;99.90
42715;DHT22;28351;51.480;5.706;2023-04-01T23:16:28;7.70;99.90
42715;DHT22;28351;51.480;5.706;2023-04-01T23:22:21;7.60;99.90
42715;DHT22;28351;51.480;5.706;2023-04-01T23:27:59;7.50;99.90
42715;DHT22;28351;51.480;5.706;2023-04-01T23:35:53;7.50;99.90
42715;DHT22;28351;51.480;5.706;2023-04-01T23:38:21;7.40;99.90
42715;DHT22;28351;51.480;5.706;2023-04-01T23:40:52;7.50;99.90
42715;DHT22;28351;51.480;5.706;2023-04-01T23:43:26;7.40;99.90
42715;DHT22;28351;51.480;5.706;2023-04-01T23:45:55;7.40;99.90
42715;DHT22;28351;51.480;5.706;2023-04-01T23:48:27;7.40;99.90
42715;DHT22;28351;51.480;5.706;2023-04-01T23:50:54;7.30;99.90
42715;DHT22;28351;51.480;5.706;2023-04-01T23:53:24;7.30;99.90
42715;DHT22;28351;51.480;5.706;2023-04-01T23:55:51;7.30;99.90
42715;DHT22;28351;51.480;5.706;2023-04-01T23:58:38;7.30;99.90
